Time;durP1;ratioP1;P1;durP2;ratioP2;P2;SDS_P1;SDS_P2;PMS_P1;PMS_P2;Temp;Humidity;BMP_temperature;BMP_pressure;BME280_temperature;BME280_humidity;BME280_pressure;Samples;Min_cycle;Max_cycle;Signal;HPM_P1;HPM_P2
2022/10/08 00:00:06;;;;;;;34.88;17.80;;;;;;;-145.69;100.00;71774.50;5059410;28;20202;-81
2022/10/08 00:02:38;;;;;;;39.10;17.08;;;;;;;-145.69;100.00;71780.50;5074666;28;20248;-82
2022/10/08 00:05:08;;;;;;;32.83;17.40;;;;;;;-145.69;100.00;71772.53;5074974;28;20206;-82
2022/10/08 00:07:35;;;;;;;41.45;18.08;;;;;;;-145.69;100.00;71776.50;5074447;28;20303;-82
2022/10/08 00:10:05;;;;;;;36.58;18.80;;;;;;;-145.69;100.00;71780.50;5075115;28;20290;-82
2022/10/08 00:12:31;;;;;;;34.42;17.33;;;;;;;-145.69;100.00;71784.47;5066312;28;20725;-82
2022/10/08 00:14:58;;;;;;;40.90;17.00;;;;;;;-145.69;100.00;71792.44;5054534;28;20225;-82
2022/10/08 00:17:24;;;;;;;37.20;17.35;;;;;;;-145.69;100.00;71778.50;5054012;28;20321;-81
2022/10/08 00:19:53;;;;;;;35.53;17.50;;;;;;;-145.69;100.00;71774.50;5054224;28;20207;-81
2022/10/08 00:22:19;;;;;;;42.42;18.65;;;;;;;-145.69;100.00;71770.53;5054572;28;20273;-83
2022/10/08 00:24:46;;;;;;;42.58;17.70;;;;;;;-145.69;100.00;71770.53;5068998;28;20295;-82
2022/10/08 00:27:15;;;;;;;40.15;18.15;;;;;;;-145.69;100.00;71774.50;5075139;28;20207;-82
2022/10/08 00:29:43;;;;;;;34.83;15.87;;;;;;;-145.69;100.00;71784.47;5075247;28;20293;-82
2022/10/08 00:32:10;;;;;;;25.80;13.43;;;;;;;-145.69;100.00;71792.44;5075206;28;20257;-82
2022/10/08 00:34:38;;;;;;;30.92;14.15;;;;;;;-145.69;100.00;71790.44;5074836;28;20202;-82
2022/10/08 00:37:05;;;;;;;28.83;14.88;;;;;;;-145.69;100.00;71794.41;5062166;28;20231;-82
2022/10/08 00:39:37;;;;;;;32.83;14.75;;;;;;;-145.69;100.00;71804.38;5062325;28;20206;-83
2022/10/08 00:42:04;;;;;;;32.97;14.10;;;;;;;-145.69;100.00;71812.31;5061168;28;20540;-83
2022/10/08 00:44:56;;;;;;;30.00;15.07;;;;;;;-145.69;100.00;71820.28;5072589;28;20599;-83
2022/10/08 00:47:30;;;;;;;30.95;14.73;;;;;;;-145.69;100.00;71818.31;5077413;28;20539;-83
2022/10/08 00:50:01;;;;;;;29.75;14.98;;;;;;;-145.69;100.00;71822.28;5075572;28;21051;-82
2022/10/08 00:52:33;;;;;;;28.70;12.35;;;;;;;-145.69;100.00;71824.25;5074893;28;20206;-83
2022/10/08 00:55:02;;;;;;;34.17;15.13;;;;;;;-145.69;100.00;71824.25;5059763;28;20202;-82
2022/10/08 00:57:29;;;;;;;28.05;13.70;;;;;;;-145.69;100.00;71820.28;5034043;28;20230;-83
2022/10/08 00:59:57;;;;;;;41.47;20.45;;;;;;;-145.69;100.00;71802.38;5032471;28;20437;-82
2022/10/08 01:02:24;;;;;;;31.15;15.18;;;;;;;-145.69;100.00;71808.34;5033786;28;20196;-82
2022/10/08 01:04:52;;;;;;;34.85;13.70;;;;;;;-145.69;100.00;71816.31;5034435;28;20200;-82
2022/10/08 01:07:26;;;;;;;33.85;13.93;;;;;;;-145.69;100.00;71814.31;5033844;28;20651;-82
2022/10/08 01:10:01;;;;;;;33.22;14.40;;;;;;;-145.69;100.00;71814.31;5034875;28;20571;-82
2022/10/08 01:12:39;;;;;;;25.45;12.48;;;;;;;-145.69;100.00;71816.31;5034485;28;20214;-82
2022/10/08 01:15:17;;;;;;;34.10;15.45;;;;;;;-145.69;100.00;71816.31;5035511;28;20257;-82
2022/10/08 01:18:04;;;;;;;44.17;16.27;;;;;;;-145.69;100.00;71804.38;5043201;28;20235;-82
2022/10/08 01:20:42;;;;;;;30.33;14.02;;;;;;;-145.69;100.00;71808.34;5055000;28;20204;-83
2022/10/08 01:23:29;;;;;;;35.70;14.63;;;;;;;-145.69;100.00;71800.38;5056494;28;20240;-82
2022/10/08 01:26:03;;;;;;;35.03;14.43;;;;;;;-145.69;100.00;71804.38;5055737;28;20661;-82
2022/10/08 01:28:42;;;;;;;44.17;15.85;;;;;;;-145.69;100.00;71796.41;5055096;28;20226;-83
2022/10/08 01:31:14;;;;;;;31.48;14.70;;;;;;;-145.69;100.00;71792.44;5037237;28;20631;-83
2022/10/08 01:33:47;;;;;;;33.38;13.60;;;;;;;-145.69;100.00;71798.41;5038109;28;20200;-82
2022/10/08 01:36:17;;;;;;;29.80;12.90;;;;;;;-145.69;100.00;71800.38;5038158;28;20211;-83
2022/10/08 01:38:51;;;;;;;27.00;11.80;;;;;;;-145.69;100.00;71792.44;5038651;28;20207;-82
2022/10/08 01:41:19;;;;;;;28.20;12.38;;;;;;;-145.69;100.00;71792.44;5044520;28;20231;-82
2022/10/08 01:43:52;;;;;;;25.95;13.27;;;;;;;-145.69;100.00;71800.38;5063909;28;20831;-82
2022/10/08 01:46:24;;;;;;;42.63;11.93;;;;;;;-145.69;100.00;71792.44;5079373;28;20201;-83
2022/10/08 01:48:59;;;;;;;24.33;11.02;;;;;;;-145.69;100.00;71788.44;5080033;28;20203;-84
2022/10/08 01:51:31;;;;;;;32.40;10.73;;;;;;;-145.69;100.00;71784.47;5079397;28;20209;-83
2022/10/08 01:54:04;;;;;;;30.77;11.40;;;;;;;-145.69;100.00;71784.47;5077619;28;20201;-82
2022/10/08 01:56:37;;;;;;;32.10;10.00;;;;;;;-145.69;100.00;71778.50;5078472;28;20218;-82
2022/10/08 01:59:13;;;;;;;26.60;11.05;;;;;;;-145.69;100.00;71780.50;5080068;28;20195;-82
2022/10/08 02:01:50;;;;;;;28.95;10.32;;;;;;;-145.69;100.00;71772.53;5077541;28;20194;-82
2022/10/08 02:04:37;;;;;;;27.08;10.68;;;;;;;-145.69;100.00;71780.50;5079247;28;20302;-82
2022/10/08 02:07:09;;;;;;;24.67;11.30;;;;;;;-145.69;100.00;71768.53;5057021;28;20657;-83
2022/10/08 02:09:39;;;;;;;27.70;12.05;;;;;;;-145.69;100.00;71760.59;5057853;28;20195;-83
2022/10/08 02:12:07;;;;;;;23.80;10.40;;;;;;;-145.69;100.00;71768.53;5057571;28;20203;-83
2022/10/08 02:14:36;;;;;;;27.58;11.50;;;;;;;-145.69;100.00;71764.56;5056468;28;20199;-82
2022/10/08 02:17:14;;;;;;;25.95;9.32;;;;;;;-145.69;100.00;71770.53;5058337;28;20227;-82
2022/10/08 02:19:51;;;;;;;31.52;10.25;;;;;;;-145.69;100.00;71776.50;5077937;28;20203;-83
2022/10/08 02:22:21;;;;;;;24.33;10.15;;;;;;;-145.69;100.00;71772.53;5078383;28;20211;-83
2022/10/08 02:24:52;;;;;;;24.07;10.93;;;;;;;-145.69;100.00;71776.50;5078603;28;20273;-83
2022/10/08 02:27:26;;;;;;;22.73;10.35;;;;;;;-145.69;100.00;71780.50;5076807;28;20202;-82
2022/10/08 02:30:01;;;;;;;28.67;10.10;;;;;;;-145.69;100.00;71770.53;5063807;28;20204;-82
2022/10/08 02:32:33;;;;;;;22.00;8.98;;;;;;;-145.69;100.00;71770.53;5056164;28;20753;-83
2022/10/08 02:35:06;;;;;;;21.92;9.43;;;;;;;-145.69;100.00;71774.50;5056288;28;20199;-83
2022/10/08 02:37:41;;;;;;;20.15;9.43;;;;;;;-145.69;100.00;71774.50;5055578;28;20709;-83
2022/10/08 02:40:10;;;;;;;24.35;9.40;;;;;;;-145.69;100.00;71772.53;5056094;28;20210;-83
2022/10/08 02:42:41;;;;;;;23.93;9.13;;;;;;;-145.69;100.00;71774.50;5056978;28;20227;-83
2022/10/08 02:45:15;;;;;;;24.10;8.65;;;;;;;-145.69;100.00;71780.50;5055656;28;20242;-82
2022/10/08 02:47:44;;;;;;;30.02;9.27;;;;;;;-145.69;100.00;71776.50;5059711;28;20689;-82
2022/10/08 02:50:14;;;;;;;23.85;9.18;;;;;;;-145.69;100.00;71784.47;5060398;28;20298;-82
2022/10/08 02:52:45;;;;;;;24.10;9.60;;;;;;;-145.69;100.00;71788.44;5060049;28;20617;-83
2022/10/08 02:55:19;;;;;;;22.00;8.85;;;;;;;-145.69;100.00;71792.44;5057200;28;20205;-83
2022/10/08 02:57:54;;;;;;;22.52;8.50;;;;;;;-145.69;100.00;71792.44;5059757;28;20227;-83
2022/10/08 03:00:23;;;;;;;36.20;9.55;;;;;;;-145.69;100.00;71782.47;5059679;28;20203;-83
2022/10/08 03:02:57;;;;;;;20.15;8.20;;;;;;;-145.69;100.00;71788.44;5065094;28;20242;-83
2022/10/08 03:05:24;;;;;;;25.98;9.07;;;;;;;-145.69;100.00;71786.47;5061377;28;20291;-82
2022/10/08 03:07:52;;;;;;;34.97;12.80;;;;;;;-145.69;100.00;71794.41;5058007;28;20442;-82
2022/10/08 03:10:23;;;;;;;29.17;9.57;;;;;;;-145.69;100.00;71800.38;5057797;28;20604;-83
2022/10/08 03:12:49;;;;;;;24.00;8.88;;;;;;;-145.69;100.00;71804.38;5060652;28;20203;-82
2022/10/08 03:15:16;;;;;;;25.42;8.73;;;;;;;-145.69;100.00;71800.38;5060787;28;20626;-82
2022/10/08 03:17:48;;;;;;;32.93;10.60;;;;;;;-145.69;100.00;71792.44;5062010;28;20304;-83
2022/10/08 03:20:15;;;;;;;26.70;9.73;;;;;;;-145.69;100.00;71792.44;5061807;28;20286;-82
2022/10/08 03:22:42;;;;;;;28.85;10.18;;;;;;;-145.69;100.00;71790.44;5062023;28;20211;-82
2022/10/08 03:25:10;;;;;;;29.20;10.23;;;;;;;-145.69;100.00;71796.41;5060658;28;20203;-82
2022/10/08 03:27:37;;;;;;;30.15;8.80;;;;;;;-145.69;100.00;71798.41;5061906;28;20218;-83
2022/10/08 03:30:04;;;;;;;30.40;9.77;;;;;;;-145.69;100.00;71794.41;5061184;28;20294;-82
2022/10/08 03:32:31;;;;;;;33.77;10.97;;;;;;;-145.69;100.00;71798.41;5061743;28;20235;-82
2022/10/08 03:34:59;;;;;;;33.33;9.87;;;;;;;-145.69;100.00;71804.38;5058886;28;20233;-82
2022/10/08 03:37:25;;;;;;;25.47;9.20;;;;;;;-145.69;100.00;71804.38;5058628;28;20223;-82
2022/10/08 03:39:52;;;;;;;24.83;9.43;;;;;;;-145.69;100.00;71800.38;5066949;28;20210;-83
2022/10/08 03:42:21;;;;;;;24.97;9.43;;;;;;;-145.69;100.00;71798.41;5076585;28;20210;-82
2022/10/08 03:44:50;;;;;;;28.90;9.47;;;;;;;-145.69;100.00;71796.41;5077402;28;20207;-82
2022/10/08 03:47:16;;;;;;;32.13;9.50;;;;;;;-145.69;100.00;71798.41;5079657;28;20199;-82
2022/10/08 03:49:43;;;;;;;24.63;10.43;;;;;;;-145.69;100.00;71792.44;5076228;28;20215;-82
2022/10/08 03:52:10;;;;;;;32.35;9.32;;;;;;;-145.69;100.00;71794.41;5079839;28;20199;-82
2022/10/08 03:54:37;;;;;;;25.50;9.15;;;;;;;-145.69;100.00;71792.44;5077935;28;20202;-82
2022/10/08 03:57:04;;;;;;;19.38;9.07;;;;;;;-145.69;100.00;71792.44;5074461;28;20233;-82
2022/10/08 03:59:31;;;;;;;19.05;9.30;;;;;;;-145.69;100.00;71790.44;5076427;28;20199;-82
2022/10/08 04:01:57;;;;;;;25.10;8.77;;;;;;;-145.69;100.00;71792.44;5078753;28;20191;-82
2022/10/08 04:04:29;;;;;;;19.13;8.20;;;;;;;-145.69;100.00;71808.34;5080201;28;20297;-83
2022/10/08 04:06:55;;;;;;;22.10;8.20;;;;;;;-145.69;100.00;71806.34;5079301;28;20206;-82
2022/10/08 04:09:23;;;;;;;22.15;8.23;;;;;;;-145.69;100.00;71812.31;5081372;28;20206;-83
2022/10/08 04:11:50;;;;;;;21.40;8.40;;;;;;;-145.69;100.00;71814.31;5081894;28;20199;-82
2022/10/08 04:14:16;;;;;;;27.93;8.13;;;;;;;-145.69;100.00;71820.28;5081546;28;20207;-83
2022/10/08 04:16:43;;;;;;;18.65;7.88;;;;;;;-145.69;100.00;71820.28;5081908;28;20227;-82
2022/10/08 04:19:11;;;;;;;19.90;7.80;;;;;;;-145.69;100.00;71824.25;5080314;28;20871;-82
2022/10/08 04:21:40;;;;;;;17.60;7.90;;;;;;;-145.69;100.00;71814.31;5077856;28;20213;-82
2022/10/08 04:24:09;;;;;;;28.33;8.93;;;;;;;-145.69;100.00;71808.34;5079189;28;20203;-82
2022/10/08 04:26:37;;;;;;;27.70;9.70;;;;;;;-145.69;100.00;71818.31;5062941;28;20278;-81
2022/10/08 04:29:04;;;;;;;19.47;8.63;;;;;;;-145.69;100.00;71826.25;5055515;28;20290;-83
2022/10/08 04:31:30;;;;;;;25.60;9.30;;;;;;;-145.69;100.00;71818.31;5058638;28;20202;-82
2022/10/08 04:33:57;;;;;;;25.20;9.00;;;;;;;-145.69;100.00;71818.31;5057534;28;20717;-83
2022/10/08 04:36:24;;;;;;;23.07;8.67;;;;;;;-145.69;100.00;71816.31;5059938;28;20203;-83
2022/10/08 04:38:51;;;;;;;33.47;9.23;;;;;;;-145.69;100.00;71822.28;5060904;28;20651;-82
2022/10/08 04:41:20;;;;;;;20.57;8.90;;;;;;;-145.69;100.00;71816.31;5061013;28;20199;-82
2022/10/08 04:43:52;;;;;;;24.20;9.83;;;;;;;-145.69;100.00;71824.25;5058876;28;20294;-82
2022/10/08 04:46:20;;;;;;;29.40;8.50;;;;;;;-145.69;100.00;71840.19;5058472;28;20200;-82
2022/10/08 04:48:54;;;;;;;19.10;8.50;;;;;;;-145.69;100.00;71852.13;5059481;28;20199;-82
2022/10/08 04:51:22;;;;;;;28.80;8.63;;;;;;;-145.69;100.00;71852.13;5076833;28;20690;-82
2022/10/08 04:53:50;;;;;;;26.20;9.70;;;;;;;-145.69;100.00;71844.16;5044169;28;20204;-82
2022/10/08 04:56:19;;;;;;;23.20;8.43;;;;;;;-145.69;100.00;71848.16;5035388;28;20196;-82
2022/10/08 04:58:48;;;;;;;21.93;8.63;;;;;;;-145.69;100.00;71856.09;5037317;28;20228;-82
2022/10/08 05:01:20;;;;;;;29.57;8.37;;;;;;;-145.69;100.00;71856.09;5047254;28;20187;-82
2022/10/08 05:03:52;;;;;;;24.43;8.40;;;;;;;-145.69;100.00;71868.06;5077999;28;20202;-82
2022/10/08 05:06:20;;;;;;;22.77;9.30;;;;;;;-145.69;100.00;71868.06;5074514;28;20293;-82
2022/10/08 05:08:47;;;;;;;22.83;8.50;;;;;;;-145.69;100.00;71872.03;5073644;28;20198;-83
2022/10/08 05:11:15;;;;;;;28.57;8.57;;;;;;;-145.69;100.00;71872.03;5073342;28;20209;-83
2022/10/08 05:13:42;;;;;;;24.37;8.27;;;;;;;-145.69;100.00;71868.06;5073470;28;20214;-83
2022/10/08 05:16:13;;;;;;;20.83;8.00;;;;;;;-145.69;100.00;71868.06;5073998;28;20561;-82
2022/10/08 05:18:41;;;;;;;24.97;8.47;;;;;;;-145.69;100.00;71880.00;5073511;28;20243;-82
2022/10/08 05:21:10;;;;;;;23.83;7.80;;;;;;;-145.69;100.00;71891.94;5073963;28;20252;-82
2022/10/08 05:23:44;;;;;;;19.77;7.67;;;;;;;-145.69;100.00;71887.94;5073080;28;20210;-82
2022/10/08 05:26:14;;;;;;;16.03;8.07;;;;;;;-145.69;100.00;71893.91;5061906;28;20198;-82
2022/10/08 05:28:41;;;;;;;19.60;7.60;;;;;;;-145.69;100.00;71899.88;5054632;28;20291;-82
2022/10/08 05:31:08;;;;;;;31.37;8.63;;;;;;;-145.69;100.00;71899.88;5054129;28;20207;-83
2022/10/08 05:33:39;;;;;;;18.10;8.10;;;;;;;-145.69;100.00;71909.84;5053038;28;20232;-83
2022/10/08 05:36:08;;;;;;;22.88;7.95;;;;;;;-145.69;100.00;71909.84;5054666;28;20211;-84
2022/10/08 05:38:36;;;;;;;19.90;7.93;;;;;;;-145.69;100.00;71899.88;5054427;28;20265;-82
2022/10/08 05:41:10;;;;;;;21.70;9.47;;;;;;;-145.69;100.00;71895.91;5053790;28;20203;-83
2022/10/08 05:43:40;;;;;;;29.10;9.30;;;;;;;-145.69;100.00;71899.88;5055150;28;20203;-83
2022/10/08 05:46:07;;;;;;;17.63;8.20;;;;;;;-145.69;100.00;71899.88;5054968;28;20562;-83
2022/10/08 05:48:34;;;;;;;25.85;8.93;;;;;;;-145.69;100.00;71889.94;5055154;28;20210;-83
2022/10/08 05:51:08;;;;;;;19.83;9.53;;;;;;;-145.69;100.00;71895.91;5056709;28;20203;-83
2022/10/08 05:53:39;;;;;;;23.97;9.00;;;;;;;-145.69;100.00;71895.91;5057467;28;20202;-85
2022/10/08 05:56:09;;;;;;;23.43;8.40;;;;;;;-145.69;100.00;71895.91;5055029;28;20209;-83
2022/10/08 05:58:38;;;;;;;21.30;8.40;;;;;;;-145.69;100.00;71895.91;5053973;28;20227;-84
2022/10/08 06:01:06;;;;;;;29.65;10.80;;;;;;;-145.69;100.00;71868.06;5055214;28;20451;-84
2022/10/08 06:03:33;;;;;;;18.97;8.80;;;;;;;-145.69;100.00;71880.00;5053723;28;20207;-84
2022/10/08 06:06:02;;;;;;;13.90;7.65;;;;;;;-145.69;100.00;71883.97;5054818;28;20199;-83
2022/10/08 06:08:31;;;;;;;14.83;7.80;;;;;;;-145.69;100.00;71883.97;5054837;28;20226;-85
2022/10/08 06:10:57;;;;;;;17.80;8.13;;;;;;;-145.69;100.00;71868.06;5055573;28;20204;-83
2022/10/08 06:13:27;;;;;;;32.37;9.40;;;;;;;-145.69;100.00;71872.03;5056137;28;20592;-83
2022/10/08 06:15:55;;;;;;;22.85;7.93;;;;;;;-145.69;100.00;71864.06;5075482;28;20657;-83
2022/10/08 06:18:22;;;;;;;25.10;7.88;;;;;;;-145.69;100.00;71856.09;5065967;28;20242;-84
2022/10/08 06:20:48;;;;;;;18.83;8.57;;;;;;;-145.69;100.00;71844.16;5055668;28;20566;-83
2022/10/08 06:23:15;;;;;;;16.98;7.78;;;;;;;-145.69;100.00;71842.19;5058762;28;20208;-83
2022/10/08 06:25:43;;;;;;;21.02;8.15;;;;;;;-145.69;100.00;71836.22;5063223;28;20664;-84
2022/10/08 06:28:09;;;;;;;23.13;7.72;;;;;;;-145.69;100.00;71834.22;5079481;28;20213;-83
2022/10/08 06:30:36;;;;;;;22.23;8.30;;;;;;;-145.69;100.00;71824.25;5078040;28;20210;-82
2022/10/08 06:33:05;;;;;;;17.98;8.35;;;;;;;-145.69;100.00;71810.34;5077035;28;20199;-83
2022/10/08 06:35:31;;;;;;;27.25;8.20;;;;;;;-145.69;100.00;71798.41;5076131;28;20190;-82
2022/10/08 06:37:58;;;;;;;25.23;9.93;;;;;;;-145.69;100.00;71782.47;5076617;28;20454;-82
2022/10/08 06:40:24;;;;;;;25.50;8.65;;;;;;;-145.69;100.00;71760.59;5077291;28;20199;-84
2022/10/08 06:42:52;;;;;;;19.67;8.15;;;;;;;-145.69;100.00;71748.66;5078562;28;20240;-83
2022/10/08 06:45:19;;;;;;;14.27;8.00;;;;;;;-145.69;100.00;71712.81;5079873;28;20206;-84
2022/10/08 06:47:45;;;;;;;13.07;7.60;;;;;;;-145.69;100.00;71718.78;5077933;28;20198;-83
2022/10/08 06:50:14;;;;;;;18.98;6.90;;;;;;;-145.69;100.00;71722.78;5077243;28;20217;-82
2022/10/08 06:52:40;;;;;;;18.52;6.38;;;;;;;-145.69;100.00;71724.75;5078376;28;20225;-83
2022/10/08 06:55:07;;;;;;;15.68;6.10;;;;;;;-145.69;100.00;71708.84;5078815;28;20564;-83
2022/10/08 06:57:34;;;;;;;13.73;5.85;;;;;;;-145.69;100.00;71708.84;5076621;28;20204;-83
2022/10/08 07:00:01;;;;;;;10.35;5.78;;;;;;;-145.69;100.00;71686.97;5077366;28;20239;-82
2022/10/08 07:02:28;;;;;;;18.95;5.97;;;;;;;-145.69;100.00;71671.03;5077732;28;20222;-81
2022/10/08 07:04:54;;;;;;;15.90;6.13;;;;;;;-145.69;100.00;71684.97;5079120;28;20202;-82
2022/10/08 07:07:21;;;;;;;14.43;6.85;;;;;;;-145.69;100.00;71667.06;5079924;28;20195;-81
2022/10/08 07:09:48;;;;;;;19.20;5.90;;;;;;;-145.69;100.00;71653.13;5078605;28;20298;-83
2022/10/08 07:12:14;;;;;;;12.30;4.97;;;;;;;-145.69;100.00;71635.22;5081092;28;20286;-82
2022/10/08 07:14:41;;;;;;;17.55;6.40;;;;;;;-145.69;100.00;71633.22;5081199;28;20194;-83
2022/10/08 07:17:09;;;;;;;13.00;4.55;;;;;;;-145.69;100.00;71613.31;5082221;28;20241;-82
2022/10/08 07:19:35;;;;;;;14.07;4.82;;;;;;;-145.69;100.00;71615.31;5080696;28;20218;-80
2022/10/08 07:22:02;;;;;;;16.35;5.10;;;;;;;-145.69;100.00;71629.25;5048441;28;20219;-80
2022/10/08 07:24:28;;;;;;;16.83;5.75;;;;;;;-145.69;100.00;71625.25;5055493;28;20266;-82
2022/10/08 07:26:55;;;;;;;15.18;5.38;;;;;;;-145.69;100.00;71607.34;5055095;28;20206;-82
2022/10/08 07:29:23;;;;;;;15.70;6.07;;;;;;;-145.69;100.00;71609.34;5055252;28;20206;-81
2022/10/08 07:31:50;;;;;;;17.98;5.57;;;;;;;-145.69;100.00;71599.41;5055407;28;20624;-82
2022/10/08 07:34:17;;;;;;;17.05;5.10;;;;;;;-145.69;100.00;71595.41;5054567;28;20302;-80
2022/10/08 07:36:44;;;;;;;13.95;5.05;;;;;;;-145.69;100.00;71601.38;5054740;28;20539;-81
2022/10/08 07:39:13;;;;;;;14.90;5.80;;;;;;;-145.69;100.00;71603.38;5055207;28;20250;-81
2022/10/08 07:41:40;;;;;;;13.88;5.70;;;;;;;-145.69;100.00;71601.38;5054815;28;20199;-81
2022/10/08 07:44:07;;;;;;;17.10;5.60;;;;;;;-145.69;100.00;71585.47;5055276;28;20298;-81
2022/10/08 07:46:36;;;;;;;15.60;5.63;;;;;;;-145.69;100.00;71607.34;5054536;28;20298;-81
2022/10/08 07:49:03;;;;;;;22.40;6.10;;;;;;;-145.69;100.00;71593.44;5055328;28;20206;-81
2022/10/08 07:51:33;;;;;;;16.05;5.63;;;;;;;-145.69;100.00;71595.41;5054938;28;20211;-79
2022/10/08 07:54:01;;;;;;;11.50;5.50;;;;;;;-145.69;100.00;71585.47;5054829;28;20203;-80
2022/10/08 07:56:27;;;;;;;19.30;4.85;;;;;;;-145.69;100.00;71589.44;5059464;28;20219;-80
2022/10/08 07:58:54;;;;;;;13.73;5.38;;;;;;;-145.69;100.00;71601.38;5074564;28;20218;-79
2022/10/08 08:01:27;;;;;;;14.80;5.35;;;;;;;-145.69;100.00;71601.38;5074859;28;20286;-80
2022/10/08 08:03:55;;;;;;;17.40;5.70;;;;;;;-145.69;100.00;71601.38;5075217;28;20556;-82
2022/10/08 08:06:22;;;;;;;13.85;4.97;;;;;;;-145.69;100.00;71593.44;5058930;28;20199;-83
2022/10/08 08:08:51;;;;;;;17.88;5.35;;;;;;;-145.69;100.00;71589.44;5054717;28;20214;-84
2022/10/08 08:11:19;;;;;;;18.55;5.65;;;;;;;-145.69;100.00;71593.44;5054889;28;20196;-83
2022/10/08 08:13:49;;;;;;;16.73;5.78;;;;;;;-145.69;100.00;71577.50;5054639;28;20203;-83
2022/10/08 08:16:18;;;;;;;20.15;6.28;;;;;;;-145.69;100.00;71589.44;5068132;28;20209;-84
2022/10/08 08:18:47;;;;;;;10.35;5.00;;;;;;;-145.69;100.00;71573.53;5074573;28;20701;-82
2022/10/08 08:21:16;;;;;;;11.48;4.80;;;;;;;-145.69;100.00;71597.41;5075766;28;20202;-83
2022/10/08 08:23:46;;;;;;;15.43;4.85;;;;;;;-145.69;100.00;71605.38;5075954;28;20206;-83
2022/10/08 08:26:15;;;;;;;14.02;4.97;;;;;;;-145.69;100.00;71617.31;5075659;28;20199;-83
2022/10/08 08:28:42;;;;;;;19.10;5.75;;;;;;;-145.69;100.00;71581.50;5077485;28;20724;-83
2022/10/08 08:31:10;;;;;;;18.40;4.82;;;;;;;-145.69;100.00;71565.56;5075120;28;20211;-84
2022/10/08 08:33:37;;;;;;;14.93;4.90;;;;;;;-145.69;100.00;71577.50;5076168;28;20234;-84
2022/10/08 08:36:06;;;;;;;10.77;5.05;;;;;;;-145.69;100.00;71583.47;5075487;28;20229;-83
2022/10/08 08:38:35;;;;;;;15.82;5.50;;;;;;;-145.69;100.00;71563.56;5074191;28;20234;-79
2022/10/08 08:41:13;;;;;;;13.57;4.55;;;;;;;-145.69;100.00;71549.66;5064446;28;20199;-81
2022/10/08 08:43:41;;;;;;;15.68;5.45;;;;;;;-145.69;100.00;71543.69;5063493;28;20262;-79
2022/10/08 08:46:09;;;;;;;17.17;5.32;;;;;;;-145.69;100.00;71541.69;5054196;28;20218;-80
2022/10/08 08:48:37;;;;;;;10.23;5.18;;;;;;;-145.69;100.00;71525.78;5055882;28;20199;-81
2022/10/08 08:51:07;;;;;;;14.10;5.00;;;;;;;-145.69;100.00;71513.81;5054341;28;20206;-83
2022/10/08 08:53:33;;;;;;;13.05;5.25;;;;;;;-145.69;100.00;71529.75;5073824;28;20581;-82
2022/10/08 08:56:04;;;;;;;10.10;4.70;;;;;;;-145.69;100.00;71559.59;5073749;28;20209;-81
2022/10/08 08:58:37;;;;;;;11.88;5.28;;;;;;;-145.69;100.00;71557.59;5073430;28;20213;-83
2022/10/08 09:01:16;;;;;;;10.65;5.38;;;;;;;-145.69;100.00;71561.59;5073590;28;20730;-82
2022/10/08 09:03:45;;;;;;;12.65;5.63;;;;;;;-145.69;100.00;71567.56;5075115;28;20224;-83
2022/10/08 09:06:14;;;;;;;9.75;4.95;;;;;;;-145.69;100.00;71591.44;5074617;28;20202;-85
2022/10/08 09:08:45;;;;;;;12.27;5.53;;;;;;;-145.69;100.00;71577.50;5073692;28;20206;-83
2022/10/08 09:11:14;;;;;;;10.63;4.35;;;;;;;-145.69;100.00;71613.31;5072106;28;20202;-81
2022/10/08 09:13:46;;;;;;;10.07;3.85;;;;;;;-145.69;100.00;71597.41;5057818;28;20199;-84
2022/10/08 09:16:15;;;;;;;11.18;4.60;;;;;;;-145.69;100.00;71585.47;5053553;28;20250;-85
2022/10/08 09:18:47;;;;;;;16.90;4.97;;;;;;;-145.69;100.00;71621.28;5053581;28;20238;-83
2022/10/08 09:21:14;;;;;;;9.35;5.05;;;;;;;-145.69;100.00;71637.19;5053636;28;20223;-83
2022/10/08 09:23:41;;;;;;;11.00;4.78;;;;;;;-145.69;100.00;71637.19;5053133;28;20750;-79
2022/10/08 09:26:15;;;;;;;9.13;4.90;;;;;;;-145.69;100.00;71647.16;5053394;28;20195;-80
2022/10/08 09:28:44;;;;;;;8.30;4.68;;;;;;;-145.69;100.00;71645.16;5053026;28;20203;-80
2022/10/08 09:31:27;;;;;;;12.00;5.35;;;;;;;-145.69;100.00;71669.03;5052964;28;20204;-79
2022/10/08 09:33:57;;;;;;;9.93;4.47;;;;;;;-145.69;100.00;71637.19;5052860;28;20218;-80
2022/10/08 09:36:31;;;;;;;10.68;4.60;;;;;;;-145.69;100.00;71625.25;5054132;28;20207;-82
2022/10/08 09:38:59;;;;;;;8.90;4.47;;;;;;;-145.69;100.00;71601.38;5044001;28;20219;-80
2022/10/08 09:41:27;;;;;;;21.30;4.90;;;;;;;-145.69;100.00;71589.44;5052791;28;20213;-80
2022/10/08 09:44:11;;;;;;;8.85;4.07;;;;;;;-145.69;100.00;71589.44;5052212;28;20209;-79
2022/10/08 09:46:39;;;;;;;10.88;4.53;;;;;;;-145.69;100.00;71563.56;5053136;28;20234;-80
2022/10/08 09:49:28;;;;;;;10.68;4.57;;;;;;;-145.69;100.00;71573.53;5052941;28;20200;-78
2022/10/08 09:51:56;;;;;;;12.73;4.75;;;;;;;-145.69;100.00;71603.38;5052640;28;20227;-78
2022/10/08 09:54:25;;;;;;;24.80;11.18;;;;;;;-145.69;100.00;71613.31;5052591;28;20207;-78
2022/10/08 09:56:54;;;;;;;24.67;9.27;;;;;;;-145.69;100.00;71601.38;5054845;28;20199;-79
2022/10/08 09:59:23;;;;;;;19.95;7.53;;;;;;;-145.69;100.00;71577.50;5056654;28;20227;-78
2022/10/08 10:01:52;;;;;;;15.43;5.47;;;;;;;-145.69;100.00;71581.50;5067256;28;20209;-77
2022/10/08 10:04:31;;;;;;;15.73;5.00;;;;;;;-145.69;100.00;71535.72;5076745;28;20206;-78
2022/10/08 10:06:57;;;;;;;18.55;4.80;;;;;;;-145.69;100.00;71553.63;5076859;28;20277;-78
2022/10/08 10:09:30;;;;;;;14.98;5.28;;;;;;;-145.69;100.00;71561.59;5076788;28;20206;-78
2022/10/08 10:12:02;;;;;;;13.43;4.18;;;;;;;-145.69;100.00;71535.72;5076846;28;20202;-78
2022/10/08 10:14:39;;;;;;;14.93;3.90;;;;;;;-145.69;100.00;71513.81;5060631;28;20199;-77
2022/10/08 10:17:14;;;;;;;12.80;4.18;;;;;;;-145.69;100.00;71497.91;5056573;28;20231;-78
2022/10/08 10:19:49;;;;;;;9.65;4.10;;;;;;;-145.69;100.00;71482.00;5056502;28;20226;-78
2022/10/08 10:22:21;;;;;;;13.55;4.22;;;;;;;-145.69;100.00;71458.09;5056474;28;20718;-79
2022/10/08 10:24:55;;;;;;;12.13;4.65;;;;;;;-145.69;100.00;71412.34;5056723;28;20668;-79
2022/10/08 10:27:27;;;;;;;10.55;3.83;;;;;;;-145.69;100.00;71402.41;5076592;28;20193;-79
2022/10/08 10:30:03;;;;;;;16.35;4.30;;;;;;;-145.69;100.00;71432.25;5076306;28;20571;-77
2022/10/08 10:32:36;;;;;;;12.77;3.72;;;;;;;-145.69;100.00;71420.31;5076653;28;20204;-78
2022/10/08 10:35:11;;;;;;;8.25;3.58;;;;;;;-145.69;100.00;71462.09;5076013;28;20217;-77
2022/10/08 10:37:45;;;;;;;9.38;4.07;;;;;;;-145.69;100.00;71408.38;5070931;28;20545;-82
2022/10/08 10:40:30;;;;;;;5.57;3.30;;;;;;;-145.69;100.00;71330.75;5056343;28;20268;-83
2022/10/08 10:43:06;;;;;;;6.80;3.30;;;;;;;-145.69;100.00;71283.00;5055383;28;20204;-81
2022/10/08 10:45:35;;;;;;;14.65;3.72;;;;;;;-145.69;100.00;71300.91;5056065;28;20215;-78
2022/10/08 10:48:03;;;;;;;8.00;3.38;;;;;;;-145.69;98.77;71245.19;5056047;28;20286;-78
2022/10/08 10:50:38;;;;;;;10.75;2.97;;;;;;;-145.69;100.00;71251.16;5067138;28;20728;-78
2022/10/08 10:53:14;;;;;;;5.63;3.20;;;;;;;-145.69;100.00;71312.84;5055066;28;20202;-78
2022/10/08 10:55:52;;;;;;;11.13;3.50;;;;;;;-145.69;100.00;71308.88;5055563;28;20230;-78
2022/10/08 10:58:36;;;;;;;11.20;3.08;;;;;;;-145.69;100.00;71406.38;5055752;28;20207;-78
2022/10/08 11:01:15;;;;;;;8.90;3.28;;;;;;;-145.69;100.00;71458.09;5055725;28;20330;-78
2022/10/08 11:03:54;;;;;;;6.28;2.78;;;;;;;-145.69;100.00;71462.09;5075687;28;20556;-78
2022/10/08 11:06:39;;;;;;;8.60;3.05;;;;;;;-145.69;100.00;71487.97;5075558;28;20198;-78
2022/10/08 11:09:16;;;;;;;9.10;2.85;;;;;;;-145.69;100.00;71458.09;5075501;28;20207;-78
2022/10/08 11:11:46;;;;;;;9.95;3.15;;;;;;;-145.69;100.00;71460.09;5070332;28;20708;-78